Haci Arif Kaptan — TCQQ — position and weather

sailwx.info

Track history (hours):
 
Tides and Currents Weather Stations Pressure Air Temp Water Temp Dewpoint Dewpoint Depression Visibility Wind Speed Wind Dir Waves Ship Positions

Haci Arif Kaptan

Last reported at 2015-Sep-01 09:32 UTC. Time now 2015-Sep-01 10:08 UTC.
Position N 44°03' E 039°06'.

Length 130 m; draft 4.4 m.

Type: Cargo ship. MMSI: 271000494.

Date/timePositionNaut miles runAvg speedWind from/ knotsBaromVisibWave heightAir tempDewpointWater temp
2015-Sep-01 09:32N 44°03' E 039°06'0 0.0
2015-Sep-01 08:32N 44°03' E 039°06'0 0.1
2015-Sep-01 07:32N 44°03' E 039°06'0 0.0
2015-Sep-01 06:32N 44°03' E 039°06'0 0.1
2015-Sep-01 05:20N 44°03' E 039°06'0 0.0
2015-Sep-01 04:32N 44°03' E 039°06'0 0.0
2015-Sep-01 03:32N 44°03' E 039°06'0 0.0
2015-Sep-01 02:32N 44°03' E 039°06'0 0.0
2015-Sep-01 01:32N 44°03' E 039°06'2 2.5
2015-Sep-01 00:33N 44°02' E 039°03'8 7.6
2015-Aug-31 23:34N 43°59' E 038°53'8 8.2
2015-Aug-31 22:32N 43°53' E 038°44'98 8.2
2015-Aug-31 10:28N 43°01' E 036°49'7 8.1
2015-Aug-31 09:33N 42°57' E 036°41'9 8.6
2015-Aug-31 08:33N 42°53' E 036°30'9 8.8
2015-Aug-31 07:33N 42°49' E 036°20'9 8.6
2015-Aug-31 06:34N 42°44' E 036°10'10 8.6
2015-Aug-31 05:24N 42°38' E 035°59'63 9.2
2015-Aug-30 22:33N 42°11' E 034°42'268 6.2
2015-Aug-29 03:32N 40°59' E 028°56'0 0.0
2015-Aug-29 01:14N 40°59' E 028°56'0 0.0
2015-Aug-29 00:32N 40°59' E 028°56'0 0.0
2015-Aug-28 20:08N 40°59' E 028°56'0 0.0
2015-Aug-28 19:32N 40°59' E 028°56'0 0.0
2015-Aug-28 13:14N 40°59' E 028°57'1 0.8
2015-Aug-28 12:30N 40°58' E 028°57'5 5.3
2015-Aug-28 11:33N 40°53' E 028°60'2 2.4
2015-Aug-28 10:33N 40°51' E 028°59'9 8.7
2015-Aug-28 09:33N 40°51' E 028°47'227 5.4
2015-Aug-26 15:33N 37°24' E 026°49'11 8.2
2015-Aug-26 14:14N 37°15' E 026°56'8 8.1
2015-Aug-26 13:12N 37°07' E 027°01'43 7.4
2015-Aug-26 07:24N 36°34' E 027°34'331 8.2
2015-Aug-24 15:05N 33°37' E 033°16'4 8.3
2015-Aug-24 14:33N 33°35' E 033°21'34 5.6
2015-Aug-24 08:32N 33°13' E 033°51'36 4.9
2015-Aug-24 01:11N 32°58' E 034°29'7 8.6
2015-Aug-24 00:22N 32°57' E 034°38'7 8.7
2015-Aug-23 23:31N 32°56' E 034°46'8 8.6
2015-Aug-23 22:32N 32°54' E 034°56'  
Track history (hours):
 
Tides and Currents Weather Stations Pressure Air Temp Water Temp Dewpoint Dewpoint Depression Visibility Wind Speed Wind Dir Waves Ship Positions

Haci Arif Kaptan

Last reported at 2015-Sep-01 09:32 UTC. Time now 2015-Sep-01 10:08 UTC.
Position N 44°03' E 039°06'.

Length 130 m; draft 4.4 m.

Type: Cargo ship. MMSI: 271000494.

Date/timePositionNaut miles runAvg speedWind from/ knotsBaromVisibWave heightAir tempDewpointWater temp
2015-Sep-01 09:32N 44°03' E 039°06'0 0.0
2015-Sep-01 08:32N 44°03' E 039°06'0 0.1
2015-Sep-01 07:32N 44°03' E 039°06'0 0.0
2015-Sep-01 06:32N 44°03' E 039°06'0 0.1
2015-Sep-01 05:20N 44°03' E 039°06'0 0.0
2015-Sep-01 04:32N 44°03' E 039°06'0 0.0
2015-Sep-01 03:32N 44°03' E 039°06'0 0.0
2015-Sep-01 02:32N 44°03' E 039°06'0 0.0
2015-Sep-01 01:32N 44°03' E 039°06'2 2.5
2015-Sep-01 00:33N 44°02' E 039°03'8 7.6
2015-Aug-31 23:34N 43°59' E 038°53'8 8.2
2015-Aug-31 22:32N 43°53' E 038°44'98 8.2
2015-Aug-31 10:28N 43°01' E 036°49'7 8.1
2015-Aug-31 09:33N 42°57' E 036°41'9 8.6
2015-Aug-31 08:33N 42°53' E 036°30'9 8.8
2015-Aug-31 07:33N 42°49' E 036°20'9 8.6
2015-Aug-31 06:34N 42°44' E 036°10'10 8.6
2015-Aug-31 05:24N 42°38' E 035°59'63 9.2
2015-Aug-30 22:33N 42°11' E 034°42'268 6.2
2015-Aug-29 03:32N 40°59' E 028°56'0 0.0
2015-Aug-29 01:14N 40°59' E 028°56'0 0.0
2015-Aug-29 00:32N 40°59' E 028°56'0 0.0
2015-Aug-28 20:08N 40°59' E 028°56'0 0.0
2015-Aug-28 19:32N 40°59' E 028°56'0 0.0
2015-Aug-28 13:14N 40°59' E 028°57'1 0.8
2015-Aug-28 12:30N 40°58' E 028°57'5 5.3
2015-Aug-28 11:33N 40°53' E 028°60'2 2.4
2015-Aug-28 10:33N 40°51' E 028°59'9 8.7
2015-Aug-28 09:33N 40°51' E 028°47'227 5.4
2015-Aug-26 15:33N 37°24' E 026°49'11 8.2
2015-Aug-26 14:14N 37°15' E 026°56'8 8.1
2015-Aug-26 13:12N 37°07' E 027°01'43 7.4
2015-Aug-26 07:24N 36°34' E 027°34'331 8.2
2015-Aug-24 15:05N 33°37' E 033°16'4 8.3
2015-Aug-24 14:33N 33°35' E 033°21'34 5.6
2015-Aug-24 08:32N 33°13' E 033°51'36 4.9
2015-Aug-24 01:11N 32°58' E 034°29'7 8.6
2015-Aug-24 00:22N 32°57' E 034°38'7 8.7
2015-Aug-23 23:31N 32°56' E 034°46'8 8.6
2015-Aug-23 22:32N 32°54' E 034°56'  

Dump ship's entire track history